sensor_id;sensor_type;location;lat;lon;timestamp;P1;durP1;ratioP1;P2;durP2;ratioP2
1603;SDS011;795;49.296;11.348;2023-05-10T00:00:25;8.10;;;5.10;;
1603;SDS011;795;49.296;11.348;2023-05-10T00:02:52;5.53;;;5.03;;
1603;SDS011;795;49.296;11.348;2023-05-10T00:05:19;6.00;;;5.40;;
1603;SDS011;795;49.296;11.348;2023-05-10T00:07:46;4.97;;;4.57;;
1603;SDS011;795;49.296;11.348;2023-05-10T00:10:13;5.00;;;4.60;;
1603;SDS011;795;49.296;11.348;2023-05-10T00:12:41;5.10;;;4.60;;
1603;SDS011;795;49.296;11.348;2023-05-10T00:15:08;6.53;;;4.90;;
1603;SDS011;795;49.296;11.348;2023-05-10T00:17:36;5.90;;;5.40;;
1603;SDS011;795;49.296;11.348;2023-05-10T00:20:03;6.37;;;5.77;;
1603;SDS011;795;49.296;11.348;2023-05-10T00:22:31;6.43;;;5.83;;
1603;SDS011;795;49.296;11.348;2023-05-10T00:24:58;5.80;;;5.30;;
1603;SDS011;795;49.296;11.348;2023-05-10T00:27:26;6.10;;;5.47;;
1603;SDS011;795;49.296;11.348;2023-05-10T00:29:52;5.80;;;5.30;;
1603;SDS011;795;49.296;11.348;2023-05-10T00:32:19;7.37;;;5.83;;
1603;SDS011;795;49.296;11.348;2023-05-10T00:34:47;7.07;;;5.00;;
1603;SDS011;795;49.296;11.348;2023-05-10T00:37:14;5.50;;;5.00;;
1603;SDS011;795;49.296;11.348;2023-05-10T00:39:40;5.53;;;5.03;;
1603;SDS011;795;49.296;11.348;2023-05-10T00:42:07;5.77;;;5.20;;
1603;SDS011;795;49.296;11.348;2023-05-10T00:44:34;6.03;;;5.53;;
1603;SDS011;795;49.296;11.348;2023-05-10T00:47:01;6.60;;;6.00;;
1603;SDS011;795;49.296;11.348;2023-05-10T00:49:28;6.43;;;5.90;;
1603;SDS011;795;49.296;11.348;2023-05-10T00:51:56;6.70;;;6.00;;
1603;SDS011;795;49.296;11.348;2023-05-10T00:54:23;7.87;;;6.00;;
1603;SDS011;795;49.296;11.348;2023-05-10T00:56:51;6.47;;;5.97;;
1603;SDS011;795;49.296;11.348;2023-05-10T00:59:18;7.03;;;5.63;;
1603;SDS011;795;49.296;11.348;2023-05-10T01:01:46;7.43;;;6.37;;
1603;SDS011;795;49.296;11.348;2023-05-10T01:04:14;6.77;;;6.17;;
1603;SDS011;795;49.296;11.348;2023-05-10T01:06:42;7.27;;;6.57;;
1603;SDS011;795;49.296;11.348;2023-05-10T01:09:09;6.50;;;5.90;;
1603;SDS011;795;49.296;11.348;2023-05-10T01:11:38;7.33;;;6.13;;
1603;SDS011;795;49.296;11.348;2023-05-10T01:14:06;8.73;;;6.50;;
1603;SDS011;795;49.296;11.348;2023-05-10T01:16:36;6.60;;;5.90;;
1603;SDS011;795;49.296;11.348;2023-05-10T01:19:10;6.97;;;6.30;;
1603;SDS011;795;49.296;11.348;2023-05-10T01:21:49;7.63;;;6.70;;
1603;SDS011;795;49.296;11.348;2023-05-10T01:25:43;7.77;;;6.97;;
1603;SDS011;795;49.296;11.348;2023-05-10T01:28:24;8.60;;;7.80;;
1603;SDS011;795;49.296;11.348;2023-05-10T01:35:01;8.77;;;7.87;;
1603;SDS011;795;49.296;11.348;2023-05-10T01:37:44;12.50;;;8.17;;
1603;SDS011;795;49.296;11.348;2023-05-10T01:40:22;9.00;;;8.10;;
1603;SDS011;795;49.296;11.348;2023-05-10T01:43:03;9.20;;;8.40;;
1603;SDS011;795;49.296;11.348;2023-05-10T01:45:50;9.63;;;8.67;;
1603;SDS011;795;49.296;11.348;2023-05-10T01:48:41;12.30;;;8.50;;
1603;SDS011;795;49.296;11.348;2023-05-10T01:51:25;10.30;;;9.30;;
1603;SDS011;795;49.296;11.348;2023-05-10T01:54:13;10.03;;;9.13;;
1603;SDS011;795;49.296;11.348;2023-05-10T01:56:47;10.50;;;9.57;;
1603;SDS011;795;49.296;11.348;2023-05-10T01:59:28;10.83;;;9.80;;
1603;SDS011;795;49.296;11.348;2023-05-10T02:02:03;10.00;;;9.03;;
1603;SDS011;795;49.296;11.348;2023-05-10T02:04:33;10.97;;;9.90;;
1603;SDS011;795;49.296;11.348;2023-05-10T02:07:06;11.73;;;10.53;;
1603;SDS011;795;49.296;11.348;2023-05-10T02:09:35;11.20;;;10.00;;
1603;SDS011;795;49.296;11.348;2023-05-10T02:12:05;10.70;;;9.60;;
1603;SDS011;795;49.296;11.348;2023-05-10T02:14:35;14.53;;;10.27;;
1603;SDS011;795;49.296;11.348;2023-05-10T02:17:05;11.07;;;9.90;;
1603;SDS011;795;49.296;11.348;2023-05-10T02:19:36;12.07;;;10.63;;
1603;SDS011;795;49.296;11.348;2023-05-10T02:22:07;12.83;;;9.90;;
1603;SDS011;795;49.296;11.348;2023-05-10T02:24:36;12.03;;;10.73;;
1603;SDS011;795;49.296;11.348;2023-05-10T02:27:06;11.97;;;10.87;;
1603;SDS011;795;49.296;11.348;2023-05-10T02:29:36;13.73;;;12.17;;
1603;SDS011;795;49.296;11.348;2023-05-10T02:32:05;12.30;;;11.00;;
1603;SDS011;795;49.296;11.348;2023-05-10T02:34:33;11.57;;;10.47;;
1603;SDS011;795;49.296;11.348;2023-05-10T02:37:01;12.30;;;11.07;;
1603;SDS011;795;49.296;11.348;2023-05-10T02:39:30;11.77;;;10.53;;
1603;SDS011;795;49.296;11.348;2023-05-10T02:41:59;11.80;;;9.90;;
1603;SDS011;795;49.296;11.348;2023-05-10T02:44:28;12.87;;;10.57;;
1603;SDS011;795;49.296;11.348;2023-05-10T02:46:57;13.93;;;12.40;;
1603;SDS011;795;49.296;11.348;2023-05-10T02:49:25;12.63;;;10.60;;
1603;SDS011;795;49.296;11.348;2023-05-10T02:51:56;12.97;;;11.27;;
1603;SDS011;795;49.296;11.348;2023-05-10T02:54:29;13.90;;;12.43;;
1603;SDS011;795;49.296;11.348;2023-05-10T02:57:07;13.37;;;11.97;;
1603;SDS011;795;49.296;11.348;2023-05-10T02:59:45;18.53;;;12.60;;
1603;SDS011;795;49.296;11.348;2023-05-10T03:02:12;13.13;;;11.70;;
1603;SDS011;795;49.296;11.348;2023-05-10T03:04:40;11.60;;;10.40;;
1603;SDS011;795;49.296;11.348;2023-05-10T03:07:07;15.10;;;10.70;;
1603;SDS011;795;49.296;11.348;2023-05-10T03:09:34;11.60;;;10.40;;
1603;SDS011;795;49.296;11.348;2023-05-10T03:15:17;11.00;;;9.97;;
1603;SDS011;795;49.296;11.348;2023-05-10T03:18:17;12.87;;;11.07;;
1603;SDS011;795;49.296;11.348;2023-05-10T03:20:56;12.20;;;10.80;;
1603;SDS011;795;49.296;11.348;2023-05-10T03:23:34;10.77;;;9.67;;
1603;SDS011;795;49.296;11.348;2023-05-10T03:26:17;11.87;;;10.87;;
1603;SDS011;795;49.296;11.348;2023-05-10T03:28:54;16.63;;;11.00;;
1603;SDS011;795;49.296;11.348;2023-05-10T03:31:24;12.60;;;11.07;;
1603;SDS011;795;49.296;11.348;2023-05-10T03:33:52;11.00;;;9.90;;
1603;SDS011;795;49.296;11.348;2023-05-10T03:36:19;11.17;;;9.97;;
1603;SDS011;795;49.296;11.348;2023-05-10T03:38:46;11.63;;;9.53;;
1603;SDS011;795;49.296;11.348;2023-05-10T03:41:13;12.10;;;10.90;;
1603;SDS011;795;49.296;11.348;2023-05-10T03:43:40;12.87;;;11.63;;
1603;SDS011;795;49.296;11.348;2023-05-10T03:46:07;12.60;;;11.30;;
1603;SDS011;795;49.296;11.348;2023-05-10T03:48:34;12.73;;;11.50;;
1603;SDS011;795;49.296;11.348;2023-05-10T03:51:01;14.40;;;12.03;;
1603;SDS011;795;49.296;11.348;2023-05-10T03:53:28;10.63;;;9.63;;
1603;SDS011;795;49.296;11.348;2023-05-10T03:55:55;10.80;;;9.30;;
1603;SDS011;795;49.296;11.348;2023-05-10T03:58:23;8.90;;;8.10;;
1603;SDS011;795;49.296;11.348;2023-05-10T04:00:50;8.20;;;7.40;;
1603;SDS011;795;49.296;11.348;2023-05-10T04:03:18;7.27;;;6.57;;
1603;SDS011;795;49.296;11.348;2023-05-10T04:05:46;6.37;;;5.80;;
1603;SDS011;795;49.296;11.348;2023-05-10T04:08:13;5.27;;;4.70;;
1603;SDS011;795;49.296;11.348;2023-05-10T04:10:42;5.13;;;4.57;;
1603;SDS011;795;49.296;11.348;2023-05-10T04:13:09;4.57;;;4.17;;
1603;SDS011;795;49.296;11.348;2023-05-10T04:15:37;4.70;;;4.30;;
1603;SDS011;795;49.296;11.348;2023-05-10T04:18:04;4.30;;;3.90;;
1603;SDS011;795;49.296;11.348;2023-05-10T04:20:34;3.97;;;3.67;;
1603;SDS011;795;49.296;11.348;2023-05-10T04:23:00;4.23;;;3.83;;
1603;SDS011;795;49.296;11.348;2023-05-10T04:25:27;3.40;;;3.20;;
1603;SDS011;795;49.296;11.348;2023-05-10T04:27:54;3.33;;;3.03;;
1603;SDS011;795;49.296;11.348;2023-05-10T04:30:21;5.30;;;3.60;;
1603;SDS011;795;49.296;11.348;2023-05-10T04:32:48;3.33;;;3.03;;
1603;SDS011;795;49.296;11.348;2023-05-10T04:35:15;3.47;;;3.27;;
1603;SDS011;795;49.296;11.348;2023-05-10T04:37:42;3.40;;;3.10;;
1603;SDS011;795;49.296;11.348;2023-05-10T04:40:09;2.87;;;2.67;;
1603;SDS011;795;49.296;11.348;2023-05-10T04:42:39;2.40;;;2.20;;
1603;SDS011;795;49.296;11.348;2023-05-10T04:45:09;3.30;;;2.33;;
1603;SDS011;795;49.296;11.348;2023-05-10T04:47:37;2.70;;;2.50;;
1603;SDS011;795;49.296;11.348;2023-05-10T04:50:04;2.13;;;2.03;;
1603;SDS011;795;49.296;11.348;2023-05-10T04:52:32;3.83;;;2.77;;
1603;SDS011;795;49.296;11.348;2023-05-10T04:54:59;2.83;;;2.60;;
1603;SDS011;795;49.296;11.348;2023-05-10T04:57:26;2.73;;;2.53;;
1603;SDS011;795;49.296;11.348;2023-05-10T04:59:53;2.50;;;2.40;;
1603;SDS011;795;49.296;11.348;2023-05-10T05:02:20;3.50;;;2.70;;
1603;SDS011;795;49.296;11.348;2023-05-10T05:04:47;2.00;;;1.90;;
1603;SDS011;795;49.296;11.348;2023-05-10T05:07:14;2.27;;;2.17;;
1603;SDS011;795;49.296;11.348;2023-05-10T05:09:41;1.93;;;1.80;;
1603;SDS011;795;49.296;11.348;2023-05-10T05:12:08;3.60;;;2.13;;
1603;SDS011;795;49.296;11.348;2023-05-10T05:14:40;2.07;;;1.97;;
1603;SDS011;795;49.296;11.348;2023-05-10T05:17:07;1.57;;;1.47;;
1603;SDS011;795;49.296;11.348;2023-05-10T05:19:34;1.70;;;1.60;;
1603;SDS011;795;49.296;11.348;2023-05-10T05:22:01;1.90;;;1.80;;
1603;SDS011;795;49.296;11.348;2023-05-10T05:24:28;2.70;;;1.70;;
1603;SDS011;795;49.296;11.348;2023-05-10T05:26:55;1.47;;;1.37;;
1603;SDS011;795;49.296;11.348;2023-05-10T05:29:22;1.60;;;1.50;;
1603;SDS011;795;49.296;11.348;2023-05-10T05:31:49;1.43;;;1.43;;
1603;SDS011;795;49.296;11.348;2023-05-10T05:34:19;1.40;;;1.40;;
1603;SDS011;795;49.296;11.348;2023-05-10T05:36:47;1.87;;;1.70;;
1603;SDS011;795;49.296;11.348;2023-05-10T05:39:14;1.40;;;1.30;;
1603;SDS011;795;49.296;11.348;2023-05-10T05:41:42;1.20;;;1.20;;
1603;SDS011;795;49.296;11.348;2023-05-10T05:44:09;1.47;;;1.47;;
1603;SDS011;795;49.296;11.348;2023-05-10T05:46:36;1.40;;;1.30;;
1603;SDS011;795;49.296;11.348;2023-05-10T05:49:03;1.00;;;1.00;;
1603;SDS011;795;49.296;11.348;2023-05-10T05:51:30;2.00;;;1.20;;
1603;SDS011;795;49.296;11.348;2023-05-10T05:53:57;1.50;;;1.37;;
1603;SDS011;795;49.296;11.348;2023-05-10T05:56:24;1.40;;;1.40;;
1603;SDS011;795;49.296;11.348;2023-05-10T05:58:51;2.30;;;1.50;;
1603;SDS011;795;49.296;11.348;2023-05-10T06:01:19;1.70;;;1.60;;
1603;SDS011;795;49.296;11.348;2023-05-10T06:03:46;1.50;;;1.40;;
1603;SDS011;795;49.296;11.348;2023-05-10T06:06:14;1.20;;;1.20;;
1603;SDS011;795;49.296;11.348;2023-05-10T06:08:41;4.43;;;1.47;;
1603;SDS011;795;49.296;11.348;2023-05-10T06:11:08;2.03;;;1.40;;
1603;SDS011;795;49.296;11.348;2023-05-10T06:13:35;1.30;;;1.30;;
1603;SDS011;795;49.296;11.348;2023-05-10T06:16:02;1.20;;;1.13;;
1603;SDS011;795;49.296;11.348;2023-05-10T06:18:29;1.60;;;1.50;;
1603;SDS011;795;49.296;11.348;2023-05-10T06:20:57;1.37;;;1.23;;
1603;SDS011;795;49.296;11.348;2023-05-10T06:23:23;1.60;;;1.50;;
1603;SDS011;795;49.296;11.348;2023-05-10T06:25:51;1.37;;;1.37;;
1603;SDS011;795;49.296;11.348;2023-05-10T06:28:18;1.70;;;1.57;;
1603;SDS011;795;49.296;11.348;2023-05-10T06:30:45;1.80;;;1.70;;
1603;SDS011;795;49.296;11.348;2023-05-10T06:33:12;2.20;;;2.00;;
1603;SDS011;795;49.296;11.348;2023-05-10T06:35:39;1.53;;;1.43;;
1603;SDS011;795;49.296;11.348;2023-05-10T06:38:06;1.87;;;1.77;;
1603;SDS011;795;49.296;11.348;2023-05-10T06:40:33;1.87;;;1.77;;
1603;SDS011;795;49.296;11.348;2023-05-10T06:43:00;1.30;;;1.30;;
1603;SDS011;795;49.296;11.348;2023-05-10T06:45:27;1.80;;;1.70;;
1603;SDS011;795;49.296;11.348;2023-05-10T06:47:54;1.73;;;1.63;;
1603;SDS011;795;49.296;11.348;2023-05-10T06:50:21;1.60;;;1.50;;
1603;SDS011;795;49.296;11.348;2023-05-10T06:52:48;1.97;;;1.87;;
1603;SDS011;795;49.296;11.348;2023-05-10T06:55:18;2.07;;;1.97;;
1603;SDS011;795;49.296;11.348;2023-05-10T06:57:45;1.80;;;1.70;;
1603;SDS011;795;49.296;11.348;2023-05-10T07:00:13;2.57;;;2.10;;
1603;SDS011;795;49.296;11.348;2023-05-10T07:02:41;3.27;;;2.17;;
1603;SDS011;795;49.296;11.348;2023-05-10T07:05:08;1.60;;;1.60;;
1603;SDS011;795;49.296;11.348;2023-05-10T07:07:35;2.30;;;1.90;;
1603;SDS011;795;49.296;11.348;2023-05-10T07:10:03;2.10;;;2.00;;
1603;SDS011;795;49.296;11.348;2023-05-10T07:12:30;2.20;;;1.73;;
1603;SDS011;795;49.296;11.348;2023-05-10T07:14:57;2.00;;;1.90;;
1603;SDS011;795;49.296;11.348;2023-05-10T07:17:25;1.80;;;1.70;;
1603;SDS011;795;49.296;11.348;2023-05-10T07:19:52;1.77;;;1.50;;
1603;SDS011;795;49.296;11.348;2023-05-10T07:22:19;2.73;;;1.53;;
1603;SDS011;795;49.296;11.348;2023-05-10T07:24:46;1.60;;;1.50;;
1603;SDS011;795;49.296;11.348;2023-05-10T07:27:13;2.03;;;1.87;;
1603;SDS011;795;49.296;11.348;2023-05-10T07:29:40;1.80;;;1.70;;
1603;SDS011;795;49.296;11.348;2023-05-10T07:32:07;1.70;;;1.60;;
1603;SDS011;795;49.296;11.348;2023-05-10T07:34:34;1.83;;;1.73;;
1603;SDS011;795;49.296;11.348;2023-05-10T07:37:01;1.90;;;1.80;;
1603;SDS011;795;49.296;11.348;2023-05-10T07:39:28;1.80;;;1.70;;
1603;SDS011;795;49.296;11.348;2023-05-10T07:41:55;2.13;;;1.93;;
1603;SDS011;795;49.296;11.348;2023-05-10T07:44:22;2.33;;;1.50;;
1603;SDS011;795;49.296;11.348;2023-05-10T07:46:49;1.63;;;1.53;;
1603;SDS011;795;49.296;11.348;2023-05-10T07:49:16;1.90;;;1.40;;
1603;SDS011;795;49.296;11.348;2023-05-10T07:51:44;2.43;;;1.37;;
1603;SDS011;795;49.296;11.348;2023-05-10T07:54:10;1.73;;;1.53;;
1603;SDS011;795;49.296;11.348;2023-05-10T07:56:38;1.87;;;1.77;;
1603;SDS011;795;49.296;11.348;2023-05-10T07:59:14;1.57;;;1.47;;
1603;SDS011;795;49.296;11.348;2023-05-10T08:03:41;1.63;;;1.53;;
1603;SDS011;795;49.296;11.348;2023-05-10T08:06:08;1.77;;;1.67;;
1603;SDS011;795;49.296;11.348;2023-05-10T08:08:35;1.77;;;1.67;;
1603;SDS011;795;49.296;11.348;2023-05-10T08:11:03;1.90;;;1.80;;
1603;SDS011;795;49.296;11.348;2023-05-10T08:13:30;1.50;;;1.40;;
1603;SDS011;795;49.296;11.348;2023-05-10T08:15:57;1.23;;;1.23;;
1603;SDS011;795;49.296;11.348;2023-05-10T08:18:24;1.83;;;1.73;;
1603;SDS011;795;49.296;11.348;2023-05-10T08:20:51;3.37;;;1.67;;
1603;SDS011;795;49.296;11.348;2023-05-10T08:23:18;2.20;;;1.83;;
1603;SDS011;795;49.296;11.348;2023-05-10T08:25:45;2.90;;;1.63;;
1603;SDS011;795;49.296;11.348;2023-05-10T08:28:12;1.70;;;1.60;;
1603;SDS011;795;49.296;11.348;2023-05-10T08:30:39;2.23;;;2.00;;
1603;SDS011;795;49.296;11.348;2023-05-10T08:33:06;2.73;;;1.37;;
1603;SDS011;795;49.296;11.348;2023-05-10T08:35:33;1.60;;;1.53;;
1603;SDS011;795;49.296;11.348;2023-05-10T08:38:00;2.47;;;1.60;;
1603;SDS011;795;49.296;11.348;2023-05-10T08:40:28;1.53;;;1.43;;
1603;SDS011;795;49.296;11.348;2023-05-10T08:42:59;1.67;;;1.57;;
1603;SDS011;795;49.296;11.348;2023-05-10T08:45:39;1.80;;;1.70;;
1603;SDS011;795;49.296;11.348;2023-05-10T08:48:11;2.07;;;1.70;;
1603;SDS011;795;49.296;11.348;2023-05-10T08:50:40;1.63;;;1.53;;
1603;SDS011;795;49.296;11.348;2023-05-10T08:53:10;1.20;;;1.20;;
1603;SDS011;795;49.296;11.348;2023-05-10T08:55:39;1.43;;;1.33;;
1603;SDS011;795;49.296;11.348;2023-05-10T08:58:09;1.37;;;1.27;;
1603;SDS011;795;49.296;11.348;2023-05-10T09:00:36;1.47;;;1.37;;
1603;SDS011;795;49.296;11.348;2023-05-10T09:03:04;1.40;;;1.30;;
1603;SDS011;795;49.296;11.348;2023-05-10T09:05:32;1.70;;;1.60;;
1603;SDS011;795;49.296;11.348;2023-05-10T09:07:59;1.57;;;1.47;;
1603;SDS011;795;49.296;11.348;2023-05-10T09:10:29;1.87;;;1.77;;
1603;SDS011;795;49.296;11.348;2023-05-10T09:12:57;1.23;;;1.23;;
1603;SDS011;795;49.296;11.348;2023-05-10T09:15:25;2.70;;;1.50;;
1603;SDS011;795;49.296;11.348;2023-05-10T09:17:52;1.90;;;1.80;;
1603;SDS011;795;49.296;11.348;2023-05-10T09:20:21;1.53;;;1.47;;
1603;SDS011;795;49.296;11.348;2023-05-10T09:22:48;1.90;;;1.40;;
1603;SDS011;795;49.296;11.348;2023-05-10T09:25:16;1.70;;;1.60;;
1603;SDS011;795;49.296;11.348;2023-05-10T09:27:44;1.70;;;1.60;;
1603;SDS011;795;49.296;11.348;2023-05-10T09:30:18;1.70;;;1.60;;
1603;SDS011;795;49.296;11.348;2023-05-10T09:32:57;1.80;;;1.70;;
1603;SDS011;795;49.296;11.348;2023-05-10T09:35:27;2.30;;;2.10;;
1603;SDS011;795;49.296;11.348;2023-05-10T09:37:59;1.80;;;1.70;;
1603;SDS011;795;49.296;11.348;2023-05-10T09:40:29;3.30;;;2.23;;
1603;SDS011;795;49.296;11.348;2023-05-10T09:42:59;2.73;;;1.83;;
1603;SDS011;795;49.296;11.348;2023-05-10T09:45:33;1.97;;;1.87;;
1603;SDS011;795;49.296;11.348;2023-05-10T09:48:04;2.30;;;2.10;;
1603;SDS011;795;49.296;11.348;2023-05-10T09:50:32;4.00;;;1.60;;
1603;SDS011;795;49.296;11.348;2023-05-10T09:53:01;1.90;;;1.80;;
1603;SDS011;795;49.296;11.348;2023-05-10T09:55:43;1.90;;;1.80;;
1603;SDS011;795;49.296;11.348;2023-05-10T09:58:13;2.00;;;1.70;;
1603;SDS011;795;49.296;11.348;2023-05-10T10:00:44;1.60;;;1.50;;
1603;SDS011;795;49.296;11.348;2023-05-10T10:03:18;1.53;;;1.43;;
1603;SDS011;795;49.296;11.348;2023-05-10T10:05:47;1.73;;;1.63;;
1603;SDS011;795;49.296;11.348;2023-05-10T10:08:15;2.30;;;1.60;;
1603;SDS011;795;49.296;11.348;2023-05-10T10:10:44;3.13;;;2.00;;
1603;SDS011;795;49.296;11.348;2023-05-10T10:13:12;2.17;;;2.07;;
1603;SDS011;795;49.296;11.348;2023-05-10T10:15:40;1.80;;;1.70;;
1603;SDS011;795;49.296;11.348;2023-05-10T10:18:13;4.30;;;2.20;;
1603;SDS011;795;49.296;11.348;2023-05-10T10:20:43;2.57;;;1.83;;
1603;SDS011;795;49.296;11.348;2023-05-10T10:23:12;2.40;;;2.30;;
1603;SDS011;795;49.296;11.348;2023-05-10T10:25:42;3.80;;;1.87;;
1603;SDS011;795;49.296;11.348;2023-05-10T10:28:15;2.37;;;2.20;;
1603;SDS011;795;49.296;11.348;2023-05-10T10:31:36;2.20;;;2.10;;
1603;SDS011;795;49.296;11.348;2023-05-10T10:34:34;7.63;;;2.67;;
1603;SDS011;795;49.296;11.348;2023-05-10T10:37:04;4.10;;;2.10;;
1603;SDS011;795;49.296;11.348;2023-05-10T10:39:32;2.37;;;2.27;;
1603;SDS011;795;49.296;11.348;2023-05-10T10:42:04;2.20;;;2.00;;
1603;SDS011;795;49.296;11.348;2023-05-10T10:49:48;2.83;;;2.33;;
1603;SDS011;795;49.296;11.348;2023-05-10T10:52:31;3.67;;;2.30;;
1603;SDS011;795;49.296;11.348;2023-05-10T10:55:12;2.40;;;2.30;;
1603;SDS011;795;49.296;11.348;2023-05-10T10:57:53;2.03;;;1.93;;
1603;SDS011;795;49.296;11.348;2023-05-10T11:03:08;2.90;;;2.67;;
1603;SDS011;795;49.296;11.348;2023-05-10T11:09:04;2.57;;;2.03;;
1603;SDS011;795;49.296;11.348;2023-05-10T11:11:10;2.53;;;2.33;;
1603;SDS011;795;49.296;11.348;2023-05-10T11:13:45;2.63;;;1.90;;
1603;SDS011;795;49.296;11.348;2023-05-10T11:16:20;2.37;;;2.17;;
1603;SDS011;795;49.296;11.348;2023-05-10T11:19:01;2.77;;;2.40;;
1603;SDS011;795;49.296;11.348;2023-05-10T11:21:45;2.70;;;2.50;;
1603;SDS011;795;49.296;11.348;2023-05-10T11:24:30;2.90;;;2.17;;
1603;SDS011;795;49.296;11.348;2023-05-10T11:26:59;2.50;;;2.30;;
1603;SDS011;795;49.296;11.348;2023-05-10T11:29:27;2.20;;;1.67;;
1603;SDS011;795;49.296;11.348;2023-05-10T11:31:56;2.20;;;2.00;;
1603;SDS011;795;49.296;11.348;2023-05-10T11:34:29;4.00;;;2.07;;
1603;SDS011;795;49.296;11.348;2023-05-10T11:37:01;1.90;;;1.63;;
1603;SDS011;795;49.296;11.348;2023-05-10T11:39:28;2.73;;;1.63;;
1603;SDS011;795;49.296;11.348;2023-05-10T11:41:57;2.00;;;1.90;;
1603;SDS011;795;49.296;11.348;2023-05-10T11:44:30;1.50;;;1.40;;
1603;SDS011;795;49.296;11.348;2023-05-10T11:47:00;2.43;;;2.23;;
1603;SDS011;795;49.296;11.348;2023-05-10T11:49:28;2.60;;;2.40;;
1603;SDS011;795;49.296;11.348;2023-05-10T11:52:05;2.30;;;2.00;;
1603;SDS011;795;49.296;11.348;2023-05-10T11:54:34;2.30;;;2.13;;
1603;SDS011;795;49.296;11.348;2023-05-10T11:57:01;1.70;;;1.60;;
1603;SDS011;795;49.296;11.348;2023-05-10T11:59:29;2.07;;;1.87;;
1603;SDS011;795;49.296;11.348;2023-05-10T12:01:56;2.00;;;1.53;;
1603;SDS011;795;49.296;11.348;2023-05-10T12:04:23;1.77;;;1.67;;
1603;SDS011;795;49.296;11.348;2023-05-10T12:06:52;1.73;;;1.57;;
1603;SDS011;795;49.296;11.348;2023-05-10T12:09:19;1.43;;;1.30;;
1603;SDS011;795;49.296;11.348;2023-05-10T12:12:05;1.83;;;1.53;;
1603;SDS011;795;49.296;11.348;2023-05-10T12:14:34;1.57;;;1.47;;
1603;SDS011;795;49.296;11.348;2023-05-10T12:17:02;2.60;;;2.00;;
1603;SDS011;795;49.296;11.348;2023-05-10T12:19:36;1.40;;;1.30;;
1603;SDS011;795;49.296;11.348;2023-05-10T12:22:05;3.27;;;2.13;;
1603;SDS011;795;49.296;11.348;2023-05-10T12:24:38;1.87;;;1.77;;
1603;SDS011;795;49.296;11.348;2023-05-10T12:27:07;1.83;;;1.73;;
1603;SDS011;795;49.296;11.348;2023-05-10T12:29:35;1.43;;;1.33;;
1603;SDS011;795;49.296;11.348;2023-05-10T12:32:02;1.60;;;1.50;;
1603;SDS011;795;49.296;11.348;2023-05-10T12:34:30;2.17;;;1.50;;
1603;SDS011;795;49.296;11.348;2023-05-10T12:37:02;1.60;;;1.50;;
1603;SDS011;795;49.296;11.348;2023-05-10T12:39:43;2.33;;;1.50;;
1603;SDS011;795;49.296;11.348;2023-05-10T12:42:12;1.60;;;1.50;;
1603;SDS011;795;49.296;11.348;2023-05-10T12:44:39;2.50;;;1.60;;
1603;SDS011;795;49.296;11.348;2023-05-10T12:47:06;1.70;;;1.60;;
1603;SDS011;795;49.296;11.348;2023-05-10T12:49:33;2.50;;;2.30;;
1603;SDS011;795;49.296;11.348;2023-05-10T12:52:00;1.87;;;1.77;;
1603;SDS011;795;49.296;11.348;2023-05-10T12:54:27;2.00;;;1.90;;
1603;SDS011;795;49.296;11.348;2023-05-10T12:56:54;1.70;;;1.60;;
1603;SDS011;795;49.296;11.348;2023-05-10T12:59:21;2.40;;;1.77;;
1603;SDS011;795;49.296;11.348;2023-05-10T13:01:49;3.23;;;1.50;;
1603;SDS011;795;49.296;11.348;2023-05-10T13:04:16;5.13;;;2.23;;
1603;SDS011;795;49.296;11.348;2023-05-10T13:06:43;2.40;;;2.20;;
1603;SDS011;795;49.296;11.348;2023-05-10T13:09:10;1.70;;;1.60;;
1603;SDS011;795;49.296;11.348;2023-05-10T13:11:37;1.70;;;1.60;;
1603;SDS011;795;49.296;11.348;2023-05-10T13:14:04;1.87;;;1.77;;
1603;SDS011;795;49.296;11.348;2023-05-10T13:16:31;1.80;;;1.70;;
1603;SDS011;795;49.296;11.348;2023-05-10T13:18:58;2.60;;;2.17;;
1603;SDS011;795;49.296;11.348;2023-05-10T13:21:25;1.53;;;1.43;;
1603;SDS011;795;49.296;11.348;2023-05-10T13:23:52;2.47;;;1.63;;
1603;SDS011;795;49.296;11.348;2023-05-10T13:26:19;2.30;;;2.10;;
1603;SDS011;795;49.296;11.348;2023-05-10T13:28:47;3.40;;;2.20;;
1603;SDS011;795;49.296;11.348;2023-05-10T13:31:14;2.70;;;1.80;;
1603;SDS011;795;49.296;11.348;2023-05-10T13:33:42;1.33;;;1.33;;
1603;SDS011;795;49.296;11.348;2023-05-10T13:36:08;1.93;;;1.73;;
1603;SDS011;795;49.296;11.348;2023-05-10T13:38:35;1.50;;;1.40;;
1603;SDS011;795;49.296;11.348;2023-05-10T13:41:03;2.00;;;1.83;;
1603;SDS011;795;49.296;11.348;2023-05-10T13:43:30;1.23;;;1.23;;
1603;SDS011;795;49.296;11.348;2023-05-10T13:45:57;1.33;;;1.23;;
1603;SDS011;795;49.296;11.348;2023-05-10T13:48:24;1.80;;;1.70;;
1603;SDS011;795;49.296;11.348;2023-05-10T13:50:53;1.77;;;1.67;;
1603;SDS011;795;49.296;11.348;2023-05-10T13:53:20;1.50;;;1.40;;
1603;SDS011;795;49.296;11.348;2023-05-10T13:55:48;1.30;;;1.30;;
1603;SDS011;795;49.296;11.348;2023-05-10T13:58:15;1.20;;;1.20;;
1603;SDS011;795;49.296;11.348;2023-05-10T14:00:42;2.10;;;1.53;;
1603;SDS011;795;49.296;11.348;2023-05-10T14:03:09;1.50;;;1.40;;
1603;SDS011;795;49.296;11.348;2023-05-10T14:05:37;1.50;;;1.40;;
1603;SDS011;795;49.296;11.348;2023-05-10T14:08:04;1.33;;;1.33;;
1603;SDS011;795;49.296;11.348;2023-05-10T14:10:31;1.53;;;1.43;;
1603;SDS011;795;49.296;11.348;2023-05-10T14:12:58;1.23;;;1.13;;
1603;SDS011;795;49.296;11.348;2023-05-10T14:15:25;1.77;;;1.67;;
1603;SDS011;795;49.296;11.348;2023-05-10T14:17:52;1.50;;;1.40;;
1603;SDS011;795;49.296;11.348;2023-05-10T14:20:19;1.57;;;1.47;;
1603;SDS011;795;49.296;11.348;2023-05-10T14:22:46;1.70;;;1.60;;
1603;SDS011;795;49.296;11.348;2023-05-10T14:25:13;2.20;;;1.67;;
1603;SDS011;795;49.296;11.348;2023-05-10T14:27:41;1.97;;;1.60;;
1603;SDS011;795;49.296;11.348;2023-05-10T14:30:08;3.07;;;1.90;;
1603;SDS011;795;49.296;11.348;2023-05-10T14:32:36;1.90;;;1.80;;
1603;SDS011;795;49.296;11.348;2023-05-10T14:35:03;3.53;;;1.93;;
1603;SDS011;795;49.296;11.348;2023-05-10T14:37:32;2.03;;;1.93;;
1603;SDS011;795;49.296;11.348;2023-05-10T14:39:59;2.17;;;1.97;;
1603;SDS011;795;49.296;11.348;2023-05-10T14:42:26;2.10;;;2.00;;
1603;SDS011;795;49.296;11.348;2023-05-10T14:44:53;2.10;;;2.00;;
1603;SDS011;795;49.296;11.348;2023-05-10T14:47:20;1.73;;;1.63;;
1603;SDS011;795;49.296;11.348;2023-05-10T14:49:47;6.30;;;2.77;;
1603;SDS011;795;49.296;11.348;2023-05-10T14:52:14;1.80;;;1.70;;
1603;SDS011;795;49.296;11.348;2023-05-10T14:54:41;2.10;;;2.00;;
1603;SDS011;795;49.296;11.348;2023-05-10T14:57:08;1.73;;;1.63;;
1603;SDS011;795;49.296;11.348;2023-05-10T14:59:35;1.80;;;1.70;;
1603;SDS011;795;49.296;11.348;2023-05-10T15:02:02;2.17;;;1.80;;
1603;SDS011;795;49.296;11.348;2023-05-10T15:04:30;2.40;;;1.37;;
1603;SDS011;795;49.296;11.348;2023-05-10T15:06:58;2.80;;;1.60;;
1603;SDS011;795;49.296;11.348;2023-05-10T15:09:25;2.57;;;1.43;;
1603;SDS011;795;49.296;11.348;2023-05-10T15:11:54;2.57;;;1.77;;
1603;SDS011;795;49.296;11.348;2023-05-10T15:14:22;1.73;;;1.60;;
1603;SDS011;795;49.296;11.348;2023-05-10T15:16:49;1.40;;;1.40;;
1603;SDS011;795;49.296;11.348;2023-05-10T15:19:16;8.50;;;2.33;;
1603;SDS011;795;49.296;11.348;2023-05-10T15:21:43;2.27;;;1.30;;
1603;SDS011;795;49.296;11.348;2023-05-10T15:24:10;2.40;;;2.00;;
1603;SDS011;795;49.296;11.348;2023-05-10T15:26:37;5.40;;;2.10;;
1603;SDS011;795;49.296;11.348;2023-05-10T15:29:05;6.20;;;1.20;;
1603;SDS011;795;49.296;11.348;2023-05-10T15:31:32;2.43;;;1.80;;
1603;SDS011;795;49.296;11.348;2023-05-10T15:34:02;1.30;;;1.30;;
1603;SDS011;795;49.296;11.348;2023-05-10T15:36:31;1.70;;;1.60;;
1603;SDS011;795;49.296;11.348;2023-05-10T15:38:58;2.30;;;1.40;;
1603;SDS011;795;49.296;11.348;2023-05-10T15:41:25;1.90;;;1.80;;
1603;SDS011;795;49.296;11.348;2023-05-10T15:43:52;1.70;;;1.60;;
1603;SDS011;795;49.296;11.348;2023-05-10T15:46:19;2.13;;;1.50;;